sensor_id;sensor_type;location;lat;lon;timestamp;pressure;altitude;pressure_sealevel;temperature;humidity
49342;BME280;35210;41.606;-87.602;2023-03-30T00:02:11;100490.56;;;4.56;41.22
49342;BME280;35210;41.606;-87.602;2023-03-30T00:04:46;100487.25;;;4.51;42.06
49342;BME280;35210;41.606;-87.602;2023-03-30T00:07:14;100495.91;;;4.53;41.79
49342;BME280;35210;41.606;-87.602;2023-03-30T00:09:42;100492.59;;;4.48;42.46
49342;BME280;35210;41.606;-87.602;2023-03-30T00:12:12;100480.94;;;4.56;41.23
49342;BME280;35210;41.606;-87.602;2023-03-30T00:14:45;100495.16;;;4.49;42.05
49342;BME280;35210;41.606;-87.602;2023-03-30T00:17:14;100491.72;;;4.47;41.86
49342;BME280;35210;41.606;-87.602;2023-03-30T00:19:42;100499.81;;;4.41;41.92
49342;BME280;35210;41.606;-87.602;2023-03-30T00:22:12;100491.88;;;4.44;42.10
49342;BME280;35210;41.606;-87.602;2023-03-30T00:24:40;100486.00;;;4.38;41.86
49342;BME280;35210;41.606;-87.602;2023-03-30T00:27:08;100494.84;;;4.34;42.16
49342;BME280;35210;41.606;-87.602;2023-03-30T00:29:37;100498.66;;;4.25;41.87
49342;BME280;35210;41.606;-87.602;2023-03-30T00:32:05;100499.16;;;4.10;42.58
49342;BME280;35210;41.606;-87.602;2023-03-30T00:34:33;100502.78;;;4.06;43.46
49342;BME280;35210;41.606;-87.602;2023-03-30T00:37:01;100503.78;;;4.02;43.40
49342;BME280;35210;41.606;-87.602;2023-03-30T00:39:31;100508.91;;;4.05;43.07
49342;BME280;35210;41.606;-87.602;2023-03-30T00:42:00;100495.59;;;4.12;42.89
49342;BME280;35210;41.606;-87.602;2023-03-30T00:45:05;100494.47;;;4.19;43.58
49342;BME280;35210;41.606;-87.602;2023-03-30T00:47:37;100501.06;;;4.05;43.89
49342;BME280;35210;41.606;-87.602;2023-03-30T00:50:09;100508.47;;;3.92;44.56
49342;BME280;35210;41.606;-87.602;2023-03-30T00:52:39;100512.81;;;3.91;44.62
49342;BME280;35210;41.606;-87.602;2023-03-30T00:55:10;100509.81;;;4.04;43.97
49342;BME280;35210;41.606;-87.602;2023-03-30T00:57:41;100510.06;;;3.96;44.80
49342;BME280;35210;41.606;-87.602;2023-03-30T01:00:11;100497.06;;;3.94;44.07
49342;BME280;35210;41.606;-87.602;2023-03-30T01:02:42;100503.28;;;3.90;45.09
49342;BME280;35210;41.606;-87.602;2023-03-30T01:05:14;100513.31;;;3.76;45.55
49342;BME280;35210;41.606;-87.602;2023-03-30T01:07:42;100524.38;;;3.58;46.57
49342;BME280;35210;41.606;-87.602;2023-03-30T01:10:16;100526.91;;;3.61;46.85
49342;BME280;35210;41.606;-87.602;2023-03-30T01:12:45;100530.69;;;3.77;45.41
49342;BME280;35210;41.606;-87.602;2023-03-30T01:15:15;100528.38;;;3.70;45.77
49342;BME280;35210;41.606;-87.602;2023-03-30T01:17:56;100536.16;;;3.71;46.48
49342;BME280;35210;41.606;-87.602;2023-03-30T01:26:50;100533.94;;;3.85;45.66
49342;BME280;35210;41.606;-87.602;2023-03-30T01:35:51;100541.56;;;3.91;46.07
49342;BME280;35210;41.606;-87.602;2023-03-30T01:39:04;100550.03;;;4.00;46.72
49342;BME280;35210;41.606;-87.602;2023-03-30T01:41:45;100556.81;;;4.05;46.25
49342;BME280;35210;41.606;-87.602;2023-03-30T01:44:24;100560.22;;;4.07;45.96
49342;BME280;35210;41.606;-87.602;2023-03-30T01:46:59;100562.88;;;4.06;46.33
49342;BME280;35210;41.606;-87.602;2023-03-30T01:49:38;100564.59;;;4.07;46.33
49342;BME280;35210;41.606;-87.602;2023-03-30T01:52:13;100570.44;;;4.15;45.77
49342;BME280;35210;41.606;-87.602;2023-03-30T01:54:47;100558.97;;;4.19;45.51
49342;BME280;35210;41.606;-87.602;2023-03-30T01:57:18;100559.84;;;4.19;45.62
49342;BME280;35210;41.606;-87.602;2023-03-30T01:59:52;100559.19;;;4.13;46.24
49342;BME280;35210;41.606;-87.602;2023-03-30T02:02:23;100565.16;;;4.16;46.76
49342;BME280;35210;41.606;-87.602;2023-03-30T02:04:53;100570.59;;;4.10;47.91
49342;BME280;35210;41.606;-87.602;2023-03-30T02:07:28;100564.59;;;4.07;46.74
49342;BME280;35210;41.606;-87.602;2023-03-30T02:10:04;100570.03;;;4.01;46.87
49342;BME280;35210;41.606;-87.602;2023-03-30T02:12:34;100570.94;;;4.00;47.28
49342;BME280;35210;41.606;-87.602;2023-03-30T02:15:06;100570.03;;;4.01;47.47
49342;BME280;35210;41.606;-87.602;2023-03-30T02:17:35;100572.44;;;4.07;47.08
49342;BME280;35210;41.606;-87.602;2023-03-30T02:20:05;100573.25;;;4.09;46.58
49342;BME280;35210;41.606;-87.602;2023-03-30T02:22:38;100565.78;;;3.96;46.48
49342;BME280;35210;41.606;-87.602;2023-03-30T02:25:08;100570.22;;;3.94;47.61
49342;BME280;35210;41.606;-87.602;2023-03-30T02:27:36;100563.28;;;3.93;48.09
49342;BME280;35210;41.606;-87.602;2023-03-30T02:30:08;100569.28;;;3.97;48.07
49342;BME280;35210;41.606;-87.602;2023-03-30T02:32:41;100567.56;;;3.96;48.05
49342;BME280;35210;41.606;-87.602;2023-03-30T02:35:22;100571.94;;;3.95;47.96
49342;BME280;35210;41.606;-87.602;2023-03-30T02:41:00;100589.22;;;4.00;48.24
49342;BME280;35210;41.606;-87.602;2023-03-30T02:43:38;100584.84;;;4.00;47.51
49342;BME280;35210;41.606;-87.602;2023-03-30T02:46:27;100576.97;;;4.02;47.55
49342;BME280;35210;41.606;-87.602;2023-03-30T02:49:12;100583.81;;;4.06;47.77
49342;BME280;35210;41.606;-87.602;2023-03-30T02:51:44;100580.28;;;4.07;47.29
49342;BME280;35210;41.606;-87.602;2023-03-30T02:54:25;100577.56;;;4.10;47.44
49342;BME280;35210;41.606;-87.602;2023-03-30T02:57:08;100576.72;;;4.09;47.25
49342;BME280;35210;41.606;-87.602;2023-03-30T02:59:45;100578.56;;;4.06;47.79
49342;BME280;35210;41.606;-87.602;2023-03-30T03:02:17;100585.50;;;4.07;47.60
49342;BME280;35210;41.606;-87.602;2023-03-30T03:04:49;100597.78;;;4.05;47.82
49342;BME280;35210;41.606;-87.602;2023-03-30T03:07:20;100591.69;;;4.04;47.78
49342;BME280;35210;41.606;-87.602;2023-03-30T03:09:48;100586.41;;;4.06;47.71
49342;BME280;35210;41.606;-87.602;2023-03-30T03:12:19;100589.06;;;4.04;47.89
49342;BME280;35210;41.606;-87.602;2023-03-30T03:14:48;100584.81;;;4.02;47.84
49342;BME280;35210;41.606;-87.602;2023-03-30T03:17:17;100590.94;;;4.01;48.30
49342;BME280;35210;41.606;-87.602;2023-03-30T03:19:48;100599.69;;;4.00;48.51
49342;BME280;35210;41.606;-87.602;2023-03-30T03:22:17;100606.66;;;3.99;49.11
49342;BME280;35210;41.606;-87.602;2023-03-30T03:24:46;100601.47;;;3.97;48.63
49342;BME280;35210;41.606;-87.602;2023-03-30T03:27:14;100594.63;;;3.93;48.79
49342;BME280;35210;41.606;-87.602;2023-03-30T03:29:44;100606.03;;;3.91;48.53
49342;BME280;35210;41.606;-87.602;2023-03-30T03:32:15;100603.53;;;3.88;48.80
49342;BME280;35210;41.606;-87.602;2023-03-30T03:34:46;100603.53;;;3.88;49.18
49342;BME280;35210;41.606;-87.602;2023-03-30T03:37:16;100598.25;;;3.89;49.12
49342;BME280;35210;41.606;-87.602;2023-03-30T03:39:45;100598.25;;;3.89;49.81
49342;BME280;35210;41.606;-87.602;2023-03-30T03:42:14;100591.41;;;3.85;49.06
49342;BME280;35210;41.606;-87.602;2023-03-30T03:44:45;100593.31;;;3.80;49.41
49342;BME280;35210;41.606;-87.602;2023-03-30T03:47:14;100594.34;;;3.75;49.94
49342;BME280;35210;41.606;-87.602;2023-03-30T03:49:43;100604.84;;;3.73;49.67
49342;BME280;35210;41.606;-87.602;2023-03-30T03:52:12;100598.63;;;3.77;50.35
49342;BME280;35210;41.606;-87.602;2023-03-30T03:54:40;100595.22;;;3.75;50.41
49342;BME280;35210;41.606;-87.602;2023-03-30T03:57:11;100590.88;;;3.74;50.10
49342;BME280;35210;41.606;-87.602;2023-03-30T03:59:40;100584.06;;;3.70;50.36
49342;BME280;35210;41.606;-87.602;2023-03-30T04:02:09;100584.13;;;3.69;50.07
49342;BME280;35210;41.606;-87.602;2023-03-30T04:04:38;100583.53;;;3.59;50.53
49342;BME280;35210;41.606;-87.602;2023-03-30T04:07:09;100585.38;;;3.55;50.69
49342;BME280;35210;41.606;-87.602;2023-03-30T04:09:38;100586.38;;;3.51;50.49
49342;BME280;35210;41.606;-87.602;2023-03-30T04:12:07;100578.59;;;3.50;50.59
49342;BME280;35210;41.606;-87.602;2023-03-30T04:14:35;100571.56;;;3.52;50.10
49342;BME280;35210;41.606;-87.602;2023-03-30T04:17:04;100585.63;;;3.48;49.71
49342;BME280;35210;41.606;-87.602;2023-03-30T04:19:34;100584.00;;;3.44;49.35
49342;BME280;35210;41.606;-87.602;2023-03-30T04:22:03;100583.19;;;3.42;49.81
49342;BME280;35210;41.606;-87.602;2023-03-30T04:24:31;100591.09;;;3.39;50.44
49342;BME280;35210;41.606;-87.602;2023-03-30T04:27:01;100594.66;;;3.36;50.40
49342;BME280;35210;41.606;-87.602;2023-03-30T04:29:29;100592.00;;;3.38;50.99
49342;BME280;35210;41.606;-87.602;2023-03-30T04:31:57;100592.06;;;3.36;49.84
49342;BME280;35210;41.606;-87.602;2023-03-30T04:34:29;100588.59;;;3.36;50.20
49342;BME280;35210;41.606;-87.602;2023-03-30T04:36:58;100588.66;;;3.33;50.35
49342;BME280;35210;41.606;-87.602;2023-03-30T04:39:29;100588.81;;;3.28;50.04
49342;BME280;35210;41.606;-87.602;2023-03-30T04:41:57;100582.00;;;3.22;50.58
49342;BME280;35210;41.606;-87.602;2023-03-30T04:44:27;100591.63;;;3.20;50.75
49342;BME280;35210;41.606;-87.602;2023-03-30T04:46:56;100590.81;;;3.18;51.11
49342;BME280;35210;41.606;-87.602;2023-03-30T04:49:26;100596.03;;;3.18;50.92
49342;BME280;35210;41.606;-87.602;2023-03-30T04:51:55;100598.72;;;3.15;51.83
49342;BME280;35210;41.606;-87.602;2023-03-30T04:54:25;100602.25;;;3.14;51.98
49342;BME280;35210;41.606;-87.602;2023-03-30T04:56:54;100599.75;;;3.10;51.49
49342;BME280;35210;41.606;-87.602;2023-03-30T04:59:22;100602.50;;;3.05;51.64
49342;BME280;35210;41.606;-87.602;2023-03-30T05:01:51;100607.72;;;3.05;51.69
49342;BME280;35210;41.606;-87.602;2023-03-30T05:04:20;100599.16;;;3.00;51.99
49342;BME280;35210;41.606;-87.602;2023-03-30T05:06:52;100596.59;;;2.98;51.19
49342;BME280;35210;41.606;-87.602;2023-03-30T05:09:20;100594.94;;;2.96;50.96
49342;BME280;35210;41.606;-87.602;2023-03-30T05:11:52;100597.72;;;2.90;51.26
49342;BME280;35210;41.606;-87.602;2023-03-30T05:14:21;100590.88;;;2.86;51.32
49342;BME280;35210;41.606;-87.602;2023-03-30T05:16:54;100590.03;;;2.85;51.75
49342;BME280;35210;41.606;-87.602;2023-03-30T05:19:24;100590.03;;;2.85;51.78
49342;BME280;35210;41.606;-87.602;2023-03-30T05:21:52;100590.97;;;2.83;50.58
49342;BME280;35210;41.606;-87.602;2023-03-30T05:24:21;100598.06;;;2.78;50.64
49342;BME280;35210;41.606;-87.602;2023-03-30T05:26:51;100589.41;;;2.76;50.35
49342;BME280;35210;41.606;-87.602;2023-03-30T05:29:19;100592.91;;;2.75;50.16
49342;BME280;35210;41.606;-87.602;2023-03-30T05:31:48;100592.03;;;2.76;49.78
49342;BME280;35210;41.606;-87.602;2023-03-30T05:34:16;100598.13;;;2.75;50.10
49342;BME280;35210;41.606;-87.602;2023-03-30T05:36:44;100595.81;;;2.64;49.85
49342;BME280;35210;41.606;-87.602;2023-03-30T05:39:13;100594.88;;;2.67;49.82
49342;BME280;35210;41.606;-87.602;2023-03-30T05:41:41;100598.44;;;2.62;49.68
49342;BME280;35210;41.606;-87.602;2023-03-30T05:44:10;100597.63;;;2.60;49.12
49342;BME280;35210;41.606;-87.602;2023-03-30T05:46:39;100603.75;;;2.59;49.25
49342;BME280;35210;41.606;-87.602;2023-03-30T05:49:07;100602.91;;;2.59;49.81
49342;BME280;35210;41.606;-87.602;2023-03-30T05:51:35;100601.97;;;2.61;50.28
49342;BME280;35210;41.606;-87.602;2023-03-30T05:54:04;100602.91;;;2.59;50.01
49342;BME280;35210;41.606;-87.602;2023-03-30T05:56:32;100593.41;;;2.56;49.75
49342;BME280;35210;41.606;-87.602;2023-03-30T05:59:00;100593.50;;;2.52;49.36
49342;BME280;35210;41.606;-87.602;2023-03-30T06:01:31;100592.69;;;2.50;49.87
49342;BME280;35210;41.606;-87.602;2023-03-30T06:03:59;100592.81;;;2.45;49.28
49342;BME280;35210;41.606;-87.602;2023-03-30T06:06:28;100588.56;;;2.41;49.84
49342;BME280;35210;41.606;-87.602;2023-03-30T06:08:56;100588.66;;;2.38;50.21
49342;BME280;35210;41.606;-87.602;2023-03-30T06:11:25;100577.38;;;2.38;50.50
49342;BME280;35210;41.606;-87.602;2023-03-30T06:13:53;100580.97;;;2.32;50.59
49342;BME280;35210;41.606;-87.602;2023-03-30T06:16:21;100588.03;;;2.28;51.54
49342;BME280;35210;41.606;-87.602;2023-03-30T06:18:51;100577.00;;;2.19;51.83
49342;BME280;35210;41.606;-87.602;2023-03-30T06:21:19;100568.44;;;2.14;51.92
49342;BME280;35210;41.606;-87.602;2023-03-30T06:23:47;100571.84;;;2.16;51.26
49342;BME280;35210;41.606;-87.602;2023-03-30T06:26:15;100578.84;;;2.14;51.40
49342;BME280;35210;41.606;-87.602;2023-03-30T06:28:45;100586.66;;;2.14;51.68
49342;BME280;35210;41.606;-87.602;2023-03-30T06:31:13;100586.59;;;2.17;51.05
49342;BME280;35210;41.606;-87.602;2023-03-30T06:33:41;100584.94;;;2.14;51.23
49342;BME280;35210;41.606;-87.602;2023-03-30T06:36:13;100588.53;;;2.09;50.93
49342;BME280;35210;41.606;-87.602;2023-03-30T06:38:41;100577.22;;;2.10;51.14
49342;BME280;35210;41.606;-87.602;2023-03-30T06:41:10;100578.06;;;2.10;50.97
49342;BME280;35210;41.606;-87.602;2023-03-30T06:43:39;100585.94;;;2.09;50.42
49342;BME280;35210;41.606;-87.602;2023-03-30T06:46:08;100587.78;;;2.04;50.12
49342;BME280;35210;41.606;-87.602;2023-03-30T06:48:41;100585.00;;;2.11;49.79
49342;BME280;35210;41.606;-87.602;2023-03-30T06:51:10;100587.75;;;2.05;49.21
49342;BME280;35210;41.606;-87.602;2023-03-30T06:53:40;100586.88;;;2.05;49.80
49342;BME280;35210;41.606;-87.602;2023-03-30T06:56:09;100586.22;;;1.96;48.90
49342;BME280;35210;41.606;-87.602;2023-03-30T06:58:37;100583.66;;;1.95;49.26
49342;BME280;35210;41.606;-87.602;2023-03-30T07:01:10;100579.44;;;1.89;48.98
49342;BME280;35210;41.606;-87.602;2023-03-30T07:03:40;100575.31;;;1.79;48.61
49342;BME280;35210;41.606;-87.602;2023-03-30T07:06:09;100569.22;;;1.80;49.19
49342;BME280;35210;41.606;-87.602;2023-03-30T07:08:39;100563.28;;;1.75;48.77
49342;BME280;35210;41.606;-87.602;2023-03-30T07:11:07;100564.16;;;1.74;48.77
49342;BME280;35210;41.606;-87.602;2023-03-30T07:13:35;100562.38;;;1.76;48.87
49342;BME280;35210;41.606;-87.602;2023-03-30T07:16:04;100557.25;;;1.73;48.88
49342;BME280;35210;41.606;-87.602;2023-03-30T07:18:32;100552.03;;;1.73;49.15
49342;BME280;35210;41.606;-87.602;2023-03-30T07:21:02;100563.34;;;1.72;48.85
49342;BME280;35210;41.606;-87.602;2023-03-30T07:23:30;100559.03;;;1.71;49.27
49342;BME280;35210;41.606;-87.602;2023-03-30T07:26:00;100567.78;;;1.67;48.93
49342;BME280;35210;41.606;-87.602;2023-03-30T07:28:29;100563.75;;;1.54;48.81
49342;BME280;35210;41.606;-87.602;2023-03-30T07:31:03;100567.41;;;1.47;48.96
49342;BME280;35210;41.606;-87.602;2023-03-30T07:33:31;100568.47;;;1.38;48.50
49342;BME280;35210;41.606;-87.602;2023-03-30T07:35:59;100563.31;;;1.35;48.61
49342;BME280;35210;41.606;-87.602;2023-03-30T07:38:28;100574.81;;;1.25;49.27
49342;BME280;35210;41.606;-87.602;2023-03-30T07:40:56;100574.94;;;1.19;48.49
49342;BME280;35210;41.606;-87.602;2023-03-30T07:43:26;100569.75;;;1.17;49.18
49342;BME280;35210;41.606;-87.602;2023-03-30T07:45:55;100569.06;;;1.09;49.07
49342;BME280;35210;41.606;-87.602;2023-03-30T07:48:23;100561.22;;;1.11;49.12
49342;BME280;35210;41.606;-87.602;2023-03-30T07:50:58;100565.56;;;1.10;49.63
49342;BME280;35210;41.606;-87.602;2023-03-30T07:53:27;100570.84;;;1.07;48.56
49342;BME280;35210;41.606;-87.602;2023-03-30T07:55:56;100576.09;;;1.04;48.98
49342;BME280;35210;41.606;-87.602;2023-03-30T07:58:26;100577.81;;;1.05;49.10
49342;BME280;35210;41.606;-87.602;2023-03-30T08:00:55;100570.84;;;1.07;49.20
49342;BME280;35210;41.606;-87.602;2023-03-30T08:03:23;100565.72;;;1.03;49.96
49342;BME280;35210;41.606;-87.602;2023-03-30T08:05:52;100580.41;;;1.05;49.83
49342;BME280;35210;41.606;-87.602;2023-03-30T08:08:20;100575.28;;;1.02;50.47
49342;BME280;35210;41.606;-87.602;2023-03-30T08:10:49;100586.50;;;1.04;50.84
49342;BME280;35210;41.606;-87.602;2023-03-30T08:13:24;100582.25;;;1.00;50.50
49342;BME280;35210;41.606;-87.602;2023-03-30T08:15:53;100576.22;;;0.98;50.37
49342;BME280;35210;41.606;-87.602;2023-03-30T08:18:22;100566.91;;;0.86;49.96
49342;BME280;35210;41.606;-87.602;2023-03-30T08:20:51;100577.56;;;0.74;50.61
49342;BME280;35210;41.606;-87.602;2023-03-30T08:23:20;100583.03;;;0.60;50.62
49342;BME280;35210;41.606;-87.602;2023-03-30T08:25:49;100570.81;;;0.65;50.33
49342;BME280;35210;41.606;-87.602;2023-03-30T08:28:18;100585.50;;;0.67;50.50
49342;BME280;35210;41.606;-87.602;2023-03-30T08:30:48;100594.22;;;0.64;50.49
49342;BME280;35210;41.606;-87.602;2023-03-30T08:33:16;100597.69;;;0.64;50.69
49342;BME280;35210;41.606;-87.602;2023-03-30T08:35:45;100585.56;;;0.63;50.38
49342;BME280;35210;41.606;-87.602;2023-03-30T08:38:15;100571.78;;;0.60;50.05
49342;BME280;35210;41.606;-87.602;2023-03-30T08:40:46;100572.53;;;0.65;50.20
49342;BME280;35210;41.606;-87.602;2023-03-30T08:43:27;100588.25;;;0.59;50.39
49342;BME280;35210;41.606;-87.602;2023-03-30T08:46:01;100593.56;;;0.53;50.72
49342;BME280;35210;41.606;-87.602;2023-03-30T08:48:32;100589.28;;;0.50;50.63
49342;BME280;35210;41.606;-87.602;2023-03-30T08:51:10;100602.25;;;0.50;50.23
49342;BME280;35210;41.606;-87.602;2023-03-30T08:53:41;100602.41;;;0.43;50.77
49342;BME280;35210;41.606;-87.602;2023-03-30T08:56:13;100598.00;;;0.46;50.29
49342;BME280;35210;41.606;-87.602;2023-03-30T08:58:51;100601.47;;;0.45;50.64
49342;BME280;35210;41.606;-87.602;2023-03-30T09:01:29;100591.13;;;0.44;50.44
49342;BME280;35210;41.606;-87.602;2023-03-30T09:04:14;100601.47;;;0.47;49.33
49342;BME280;35210;41.606;-87.602;2023-03-30T09:06:48;100610.16;;;0.44;49.61
49342;BME280;35210;41.606;-87.602;2023-03-30T09:09:19;100611.03;;;0.45;50.14
49342;BME280;35210;41.606;-87.602;2023-03-30T09:11:52;100605.78;;;0.48;49.86
49342;BME280;35210;41.606;-87.602;2023-03-30T09:14:30;100593.56;;;0.53;50.36
49342;BME280;35210;41.606;-87.602;2023-03-30T09:17:07;100604.75;;;0.56;50.62
49342;BME280;35210;41.606;-87.602;2023-03-30T09:19:47;100600.41;;;0.57;50.07
49342;BME280;35210;41.606;-87.602;2023-03-30T09:22:18;100596.91;;;0.59;49.67
49342;BME280;35210;41.606;-87.602;2023-03-30T09:24:46;100602.94;;;0.61;50.20
49342;BME280;35210;41.606;-87.602;2023-03-30T09:27:19;100604.72;;;0.59;50.03
49342;BME280;35210;41.606;-87.602;2023-03-30T09:29:53;100606.38;;;0.63;49.68
49342;BME280;35210;41.606;-87.602;2023-03-30T09:32:31;100603.78;;;0.62;49.64
49342;BME280;35210;41.606;-87.602;2023-03-30T09:35:04;100613.38;;;0.58;50.43
49342;BME280;35210;41.606;-87.602;2023-03-30T09:37:39;100603.00;;;0.58;50.30
49342;BME280;35210;41.606;-87.602;2023-03-30T09:40:21;100600.53;;;0.51;49.90
49342;BME280;35210;41.606;-87.602;2023-03-30T09:43:03;100600.41;;;0.57;49.59
49342;BME280;35210;41.606;-87.602;2023-03-30T09:45:35;100599.56;;;0.56;50.18
49342;BME280;35210;41.606;-87.602;2023-03-30T09:48:07;100603.88;;;0.57;50.25
49342;BME280;35210;41.606;-87.602;2023-03-30T09:50:40;100601.25;;;0.59;50.30
49342;BME280;35210;41.606;-87.602;2023-03-30T09:53:18;100599.56;;;0.56;49.87
49342;BME280;35210;41.606;-87.602;2023-03-30T09:56:00;100590.94;;;0.54;50.04
49342;BME280;35210;41.606;-87.602;2023-03-30T09:58:30;100582.28;;;0.54;49.89
49342;BME280;35210;41.606;-87.602;2023-03-30T10:01:04;100601.38;;;0.51;49.77
49342;BME280;35210;41.606;-87.602;2023-03-30T10:03:35;100596.19;;;0.51;49.40
49342;BME280;35210;41.606;-87.602;2023-03-30T10:06:05;100598.91;;;0.44;49.61
49342;BME280;35210;41.606;-87.602;2023-03-30T10:08:38;100605.94;;;0.37;49.60
49342;BME280;35210;41.606;-87.602;2023-03-30T10:11:07;100613.16;;;0.20;49.70
49342;BME280;35210;41.606;-87.602;2023-03-30T10:13:37;100602.78;;;0.18;49.69
49342;BME280;35210;41.606;-87.602;2023-03-30T10:16:10;100601.94;;;0.18;49.92
49342;BME280;35210;41.606;-87.602;2023-03-30T10:18:43;100602.00;;;0.15;50.07
49342;BME280;35210;41.606;-87.602;2023-03-30T10:21:19;100611.59;;;0.10;49.65
49342;BME280;35210;41.606;-87.602;2023-03-30T10:24:01;100610.72;;;0.09;50.13
49342;BME280;35210;41.606;-87.602;2023-03-30T10:26:35;100614.19;;;0.10;49.79
49342;BME280;35210;41.606;-87.602;2023-03-30T10:29:05;100612.41;;;0.12;50.26
49342;BME280;35210;41.606;-87.602;2023-03-30T10:31:37;100611.66;;;0.05;49.82
49342;BME280;35210;41.606;-87.602;2023-03-30T10:34:14;100622.13;;;0.00;50.13
49342;BME280;35210;41.606;-87.602;2023-03-30T10:36:46;100622.88;;;0.07;49.96
49342;BME280;35210;41.606;-87.602;2023-03-30T10:39:19;100626.34;;;0.08;50.11
49342;BME280;35210;41.606;-87.602;2023-03-30T10:41:50;100634.03;;;0.14;49.62
49342;BME280;35210;41.606;-87.602;2023-03-30T10:44:24;100626.34;;;0.06;49.99
49342;BME280;35210;41.606;-87.602;2023-03-30T10:47:03;100638.47;;;0.07;50.10
49342;BME280;35210;41.606;-87.602;2023-03-30T10:49:46;100635.03;;;0.05;49.64
49342;BME280;35210;41.606;-87.602;2023-03-30T10:52:21;100633.22;;;0.10;50.01
49342;BME280;35210;41.606;-87.602;2023-03-30T10:54:56;100635.06;;;0.04;50.30
49342;BME280;35210;41.606;-87.602;2023-03-30T10:57:33;100630.72;;;0.04;50.56
49342;BME280;35210;41.606;-87.602;2023-03-30T11:00:22;100628.00;;;0.12;50.57
49342;BME280;35210;41.606;-87.602;2023-03-30T11:02:59;100628.84;;;0.14;50.50
49342;BME280;35210;41.606;-87.602;2023-03-30T11:05:33;100633.09;;;0.18;49.43
49342;BME280;35210;41.606;-87.602;2023-03-30T11:08:05;100629.63;;;0.19;49.70
49342;BME280;35210;41.606;-87.602;2023-03-30T11:10:36;100627.97;;;0.15;49.88
49342;BME280;35210;41.606;-87.602;2023-03-30T11:13:07;100636.59;;;0.17;49.58
49342;BME280;35210;41.606;-87.602;2023-03-30T11:15:42;100636.50;;;0.23;49.79
49342;BME280;35210;41.606;-87.602;2023-03-30T11:18:16;100637.31;;;0.25;49.49
49342;BME280;35210;41.606;-87.602;2023-03-30T11:20:52;100640.03;;;0.17;49.21
49342;BME280;35210;41.606;-87.602;2023-03-30T11:23:36;100631.47;;;0.11;48.87
49342;BME280;35210;41.606;-87.602;2023-03-30T11:26:09;100633.28;;;0.06;49.27
49342;BME280;35210;41.606;-87.602;2023-03-30T11:28:53;100627.13;;;0.13;49.95
49342;BME280;35210;41.606;-87.602;2023-03-30T11:31:41;100633.91;;;0.21;49.90
49342;BME280;35210;41.606;-87.602;2023-03-30T11:34:29;100634.72;;;0.25;49.55
49342;BME280;35210;41.606;-87.602;2023-03-30T11:37:05;100633.00;;;0.24;49.37
49342;BME280;35210;41.606;-87.602;2023-03-30T11:39:46;100633.75;;;0.32;48.70
49342;BME280;35210;41.606;-87.602;2023-03-30T11:42:25;100643.41;;;0.24;48.31
49342;BME280;35210;41.606;-87.602;2023-03-30T11:44:56;100634.06;;;0.12;48.43
49342;BME280;35210;41.606;-87.602;2023-03-30T11:47:49;100628.84;;;0.14;48.42
49342;BME280;35210;41.606;-87.602;2023-03-30T11:50:29;100633.25;;;0.09;47.72
49342;BME280;35210;41.606;-87.602;2023-03-30T11:53:13;100625.50;;;0.06;48.33
49342;BME280;35210;41.606;-87.602;2023-03-30T11:56:03;100637.03;;;-0.11;47.72
49342;BME280;35210;41.606;-87.602;2023-03-30T11:58:38;100636.97;;;-0.08;47.34
49342;BME280;35210;41.606;-87.602;2023-03-30T12:01:28;100634.19;;;0.03;48.26
49342;BME280;35210;41.606;-87.602;2023-03-30T12:04:04;100645.47;;;0.00;47.75
49342;BME280;35210;41.606;-87.602;2023-03-30T12:06:35;100643.75;;;0.01;48.35
49342;BME280;35210;41.606;-87.602;2023-03-30T12:09:31;100638.50;;;0.06;47.39
49342;BME280;35210;41.606;-87.602;2023-03-30T12:12:08;100627.19;;;0.08;47.50
49342;BME280;35210;41.606;-87.602;2023-03-30T12:14:52;100629.81;;;0.07;46.96
49342;BME280;35210;41.606;-87.602;2023-03-30T12:17:29;100634.00;;;0.15;46.30
49342;BME280;35210;41.606;-87.602;2023-03-30T12:20:05;100634.91;;;0.13;46.51
49342;BME280;35210;41.606;-87.602;2023-03-30T12:22:39;100639.19;;;0.17;46.94
49342;BME280;35210;41.606;-87.602;2023-03-30T12:25:25;100637.38;;;0.22;47.59
49342;BME280;35210;41.606;-87.602;2023-03-30T12:28:02;100636.41;;;0.29;46.33
49342;BME280;35210;41.606;-87.602;2023-03-30T12:30:42;100643.16;;;0.39;45.86
49342;BME280;35210;41.606;-87.602;2023-03-30T12:33:12;100637.06;;;0.42;46.44
49342;BME280;35210;41.606;-87.602;2023-03-30T12:35:57;100638.75;;;0.44;45.36
49342;BME280;35210;41.606;-87.602;2023-03-30T12:38:33;100639.50;;;0.51;44.61
49342;BME280;35210;41.606;-87.602;2023-03-30T12:41:09;100639.44;;;0.55;44.68
49342;BME280;35210;41.606;-87.602;2023-03-30T12:44:07;100636.75;;;0.60;44.89
49342;BME280;35210;41.606;-87.602;2023-03-30T12:46:57;100642.56;;;0.74;45.29
49342;BME280;35210;41.606;-87.602;2023-03-30T12:49:41;100635.44;;;0.84;44.75
49342;BME280;35210;41.606;-87.602;2023-03-30T12:52:16;100631.88;;;0.88;44.58
49342;BME280;35210;41.606;-87.602;2023-03-30T12:55:06;100643.13;;;0.90;44.95
49342;BME280;35210;41.606;-87.602;2023-03-30T12:57:54;100633.59;;;0.89;44.02
49342;BME280;35210;41.606;-87.602;2023-03-30T13:03:31;100621.38;;;0.94;43.30
49342;BME280;35210;41.606;-87.602;2023-03-30T13:06:03;100613.69;;;0.88;43.18
49342;BME280;35210;41.606;-87.602;2023-03-30T13:08:35;100616.47;;;0.79;42.67
49342;BME280;35210;41.606;-87.602;2023-03-30T13:11:14;100624.44;;;0.71;41.36
49342;BME280;35210;41.606;-87.602;2023-03-30T13:13:53;100615.44;;;0.87;41.98
49342;BME280;35210;41.606;-87.602;2023-03-30T13:19:42;100605.09;;;0.84;41.61
49342;BME280;35210;41.606;-87.602;2023-03-30T13:22:31;100606.00;;;0.82;42.53
49342;BME280;35210;41.606;-87.602;2023-03-30T13:25:00;100611.94;;;0.88;42.20
49342;BME280;35210;41.606;-87.602;2023-03-30T13:27:32;100609.94;;;1.03;42.54
49342;BME280;35210;41.606;-87.602;2023-03-30T13:30:09;100610.94;;;0.95;41.99
49342;BME280;35210;41.606;-87.602;2023-03-30T13:32:54;100603.69;;;1.13;40.62